sensor_id;sensor_type;location;lat;lon;timestamp;pressure;altitude;pressure_sealevel;temperature;humidity
13767;BME280;47980;48.794;9.176;2023-08-17T00:02:15;98374.94;;;21.17;100.00
13767;BME280;47980;48.794;9.176;2023-08-17T00:04:48;98371.44;;;21.13;100.00
13767;BME280;47980;48.794;9.176;2023-08-17T00:07:20;98377.22;;;21.19;100.00
13767;BME280;47980;48.794;9.176;2023-08-17T00:09:51;98375.69;;;21.25;100.00
13767;BME280;47980;48.794;9.176;2023-08-17T00:12:23;98368.38;;;21.07;100.00
13767;BME280;47980;48.794;9.176;2023-08-17T00:14:54;98367.97;;;21.16;100.00
13767;BME280;47980;48.794;9.176;2023-08-17T00:17:26;98369.88;;;21.23;100.00
13767;BME280;47980;48.794;9.176;2023-08-17T00:19:59;98371.41;;;21.24;100.00
13767;BME280;47980;48.794;9.176;2023-08-17T00:22:30;98376.03;;;21.27;100.00
13767;BME280;47980;48.794;9.176;2023-08-17T00:25:02;98374.53;;;21.19;100.00
13767;BME280;47980;48.794;9.176;2023-08-17T00:27:35;98376.44;;;21.22;100.00
13767;BME280;47980;48.794;9.176;2023-08-17T00:30:07;98376.44;;;21.22;100.00
13767;BME280;47980;48.794;9.176;2023-08-17T00:32:38;98361.00;;;21.33;100.00
13767;BME280;47980;48.794;9.176;2023-08-17T00:35:11;98363.31;;;21.34;100.00
13767;BME280;47980;48.794;9.176;2023-08-17T00:37:43;98359.09;;;21.33;100.00
13767;BME280;47980;48.794;9.176;2023-08-17T00:40:14;98351.41;;;21.10;100.00
13767;BME280;47980;48.794;9.176;2023-08-17T00:42:46;98344.84;;;21.15;100.00
13767;BME280;47980;48.794;9.176;2023-08-17T00:45:21;98358.31;;;21.22;100.00
13767;BME280;47980;48.794;9.176;2023-08-17T00:47:55;98358.34;;;21.15;100.00
13767;BME280;47980;48.794;9.176;2023-08-17T00:50:29;98362.94;;;21.25;100.00
13767;BME280;47980;48.794;9.176;2023-08-17T00:53:01;98356.41;;;21.33;100.00
13767;BME280;47980;48.794;9.176;2023-08-17T00:55:33;98354.44;;;21.45;100.00
13767;BME280;47980;48.794;9.176;2023-08-17T00:58:04;98346.75;;;21.39;100.00
13767;BME280;47980;48.794;9.176;2023-08-17T01:00:36;98336.72;;;21.36;100.00
13767;BME280;47980;48.794;9.176;2023-08-17T01:03:07;98340.59;;;21.28;100.00
13767;BME280;47980;48.794;9.176;2023-08-17T01:05:40;98345.19;;;21.38;100.00
13767;BME280;47980;48.794;9.176;2023-08-17T01:08:12;98350.59;;;21.38;100.00
13767;BME280;47980;48.794;9.176;2023-08-17T01:10:50;98348.25;;;21.55;100.00
13767;BME280;47980;48.794;9.176;2023-08-17T01:13:28;98349.38;;;21.61;100.00
13767;BME280;47980;48.794;9.176;2023-08-17T01:16:04;98355.91;;;21.63;100.00
13767;BME280;47980;48.794;9.176;2023-08-17T01:18:39;98347.03;;;21.67;100.00
13767;BME280;47980;48.794;9.176;2023-08-17T01:21:16;98346.63;;;21.75;100.00
13767;BME280;47980;48.794;9.176;2023-08-17T01:23:59;98349.31;;;21.75;100.00
13767;BME280;47980;48.794;9.176;2023-08-17T01:26:35;98345.84;;;21.71;100.00
13767;BME280;47980;48.794;9.176;2023-08-17T01:29:07;98344.69;;;21.76;100.00
13767;BME280;47980;48.794;9.176;2023-08-17T01:31:43;98350.06;;;21.83;100.00
13767;BME280;47980;48.794;9.176;2023-08-17T01:34:20;98346.16;;;21.87;100.00
13767;BME280;47980;48.794;9.176;2023-08-17T01:36:57;98346.22;;;21.77;100.00
13767;BME280;47980;48.794;9.176;2023-08-17T01:39:36;98340.44;;;21.75;100.00
13767;BME280;47980;48.794;9.176;2023-08-17T01:42:08;98341.22;;;21.72;100.00
13767;BME280;47980;48.794;9.176;2023-08-17T01:44:42;98332.81;;;21.55;100.00
13767;BME280;47980;48.794;9.176;2023-08-17T01:47:13;98330.50;;;21.54;100.00
13767;BME280;47980;48.794;9.176;2023-08-17T01:49:45;98330.47;;;21.61;100.00
13767;BME280;47980;48.794;9.176;2023-08-17T01:52:16;98333.53;;;21.67;100.00
13767;BME280;47980;48.794;9.176;2023-08-17T01:54:49;98336.63;;;21.69;100.00
13767;BME280;47980;48.794;9.176;2023-08-17T01:57:20;98336.97;;;21.71;100.00
13767;BME280;47980;48.794;9.176;2023-08-17T01:59:52;98338.19;;;21.55;100.00
13767;BME280;47980;48.794;9.176;2023-08-17T02:02:48;98333.53;;;21.67;100.00
13767;BME280;47980;48.794;9.176;2023-08-17T02:05:36;98339.31;;;21.69;100.00
13767;BME280;47980;48.794;9.176;2023-08-17T02:08:08;98338.56;;;21.68;100.00
13767;BME280;47980;48.794;9.176;2023-08-17T02:10:41;98330.03;;;21.70;100.00
13767;BME280;47980;48.794;9.176;2023-08-17T02:13:12;98330.03;;;21.73;100.00
13767;BME280;47980;48.794;9.176;2023-08-17T02:15:44;98319.25;;;21.66;100.00
13767;BME280;47980;48.794;9.176;2023-08-17T02:18:15;98321.16;;;21.73;100.00
13767;BME280;47980;48.794;9.176;2023-08-17T02:20:47;98313.47;;;21.64;100.00
13767;BME280;47980;48.794;9.176;2023-08-17T02:23:18;98310.41;;;21.58;100.00
13767;BME280;47980;48.794;9.176;2023-08-17T02:25:51;98315.41;;;21.63;100.00
13767;BME280;47980;48.794;9.176;2023-08-17T02:28:23;98317.34;;;21.63;100.00
13767;BME280;47980;48.794;9.176;2023-08-17T02:30:55;98318.50;;;21.62;100.00
13767;BME280;47980;48.794;9.176;2023-08-17T02:33:27;98320.88;;;21.46;100.00
13767;BME280;47980;48.794;9.176;2023-08-17T02:35:58;98309.97;;;21.67;100.00
13767;BME280;47980;48.794;9.176;2023-08-17T02:38:31;98312.28;;;21.76;100.00
13767;BME280;47980;48.794;9.176;2023-08-17T02:41:04;98309.50;;;21.90;100.00
13767;BME280;47980;48.794;9.176;2023-08-17T02:43:35;98305.66;;;21.84;100.00
13767;BME280;47980;48.794;9.176;2023-08-17T02:46:07;98304.16;;;21.76;100.00
13767;BME280;47980;48.794;9.176;2023-08-17T02:48:39;98310.72;;;21.71;100.00
13767;BME280;47980;48.794;9.176;2023-08-17T02:51:11;98291.78;;;21.78;100.00
13767;BME280;47980;48.794;9.176;2023-08-17T02:53:42;98302.25;;;21.73;100.00
13767;BME280;47980;48.794;9.176;2023-08-17T02:56:15;98300.34;;;21.70;100.00
13767;BME280;47980;48.794;9.176;2023-08-17T02:58:49;98294.53;;;21.68;100.00
13767;BME280;47980;48.794;9.176;2023-08-17T03:01:21;98294.84;;;21.84;100.00
13767;BME280;47980;48.794;9.176;2023-08-17T03:03:52;98293.75;;;21.71;100.00
13767;BME280;47980;48.794;9.176;2023-08-17T03:06:24;98288.03;;;21.61;100.00
13767;BME280;47980;48.794;9.176;2023-08-17T03:08:55;98287.56;;;21.74;100.00
13767;BME280;47980;48.794;9.176;2023-08-17T03:11:28;98289.50;;;21.77;100.00
13767;BME280;47980;48.794;9.176;2023-08-17T03:13:59;98280.66;;;21.73;100.00
13767;BME280;47980;48.794;9.176;2023-08-17T03:16:31;98275.56;;;21.82;100.00
13767;BME280;47980;48.794;9.176;2023-08-17T03:19:03;98276.38;;;21.79;100.00
13767;BME280;47980;48.794;9.176;2023-08-17T03:21:35;98269.50;;;21.63;100.00
13767;BME280;47980;48.794;9.176;2023-08-17T03:24:07;98268.66;;;21.74;100.00
13767;BME280;47980;48.794;9.176;2023-08-17T03:26:39;98275.63;;;21.71;100.00
13767;BME280;47980;48.794;9.176;2023-08-17T03:29:11;98271.06;;;21.65;100.00
13767;BME280;47980;48.794;9.176;2023-08-17T03:31:42;98267.19;;;21.66;100.00
13767;BME280;47980;48.794;9.176;2023-08-17T03:34:14;98257.56;;;21.65;100.00
13767;BME280;47980;48.794;9.176;2023-08-17T03:36:45;98265.16;;;21.80;100.00
13767;BME280;47980;48.794;9.176;2023-08-17T03:39:17;98268.22;;;21.86;100.00
13767;BME280;47980;48.794;9.176;2023-08-17T03:41:50;98269.41;;;21.78;100.00
13767;BME280;47980;48.794;9.176;2023-08-17T03:44:21;98266.75;;;21.74;100.00
13767;BME280;47980;48.794;9.176;2023-08-17T03:46:53;98270.59;;;21.73;100.00
13767;BME280;47980;48.794;9.176;2023-08-17T03:49:24;98277.16;;;21.79;100.00
13767;BME280;47980;48.794;9.176;2023-08-17T03:51:56;98281.41;;;21.73;100.00
13767;BME280;47980;48.794;9.176;2023-08-17T03:54:27;98280.97;;;21.82;100.00
13767;BME280;47980;48.794;9.176;2023-08-17T03:57:00;98277.53;;;21.74;100.00
13767;BME280;47980;48.794;9.176;2023-08-17T03:59:32;98286.44;;;21.68;100.00
13767;BME280;47980;48.794;9.176;2023-08-17T04:02:04;98293.44;;;21.61;100.00
13767;BME280;47980;48.794;9.176;2023-08-17T04:04:35;98294.28;;;21.44;100.00
13767;BME280;47980;48.794;9.176;2023-08-17T04:07:07;98291.13;;;21.56;100.00
13767;BME280;47980;48.794;9.176;2023-08-17T04:09:43;98284.59;;;21.54;100.00
13767;BME280;47980;48.794;9.176;2023-08-17T04:12:16;98288.88;;;21.44;100.00
13767;BME280;47980;48.794;9.176;2023-08-17T04:14:48;98288.50;;;21.35;100.00
13767;BME280;47980;48.794;9.176;2023-08-17T04:17:19;98293.13;;;21.38;100.00
13767;BME280;47980;48.794;9.176;2023-08-17T04:19:51;98297.00;;;21.41;100.00
13767;BME280;47980;48.794;9.176;2023-08-17T04:22:23;98307.38;;;21.42;100.00
13767;BME280;47980;48.794;9.176;2023-08-17T04:24:55;98305.47;;;21.46;100.00
13767;BME280;47980;48.794;9.176;2023-08-17T04:27:28;98301.97;;;21.49;100.00
13767;BME280;47980;48.794;9.176;2023-08-17T04:30:00;98317.03;;;21.50;100.00
13767;BME280;47980;48.794;9.176;2023-08-17T04:32:32;98312.78;;;21.31;100.00
13767;BME280;47980;48.794;9.176;2023-08-17T04:35:04;98310.50;;;21.33;100.00
13767;BME280;47980;48.794;9.176;2023-08-17T04:37:35;98303.19;;;21.34;100.00
13767;BME280;47980;48.794;9.176;2023-08-17T04:40:08;98302.78;;;21.39;100.00
13767;BME280;47980;48.794;9.176;2023-08-17T04:42:41;98308.97;;;21.36;100.00
13767;BME280;47980;48.794;9.176;2023-08-17T04:45:13;98314.34;;;21.39;100.00
13767;BME280;47980;48.794;9.176;2023-08-17T04:47:44;98314.38;;;21.25;100.00
13767;BME280;47980;48.794;9.176;2023-08-17T04:50:16;98306.66;;;21.20;100.00
13767;BME280;47980;48.794;9.176;2023-08-17T04:52:47;98315.91;;;21.37;100.00
13767;BME280;47980;48.794;9.176;2023-08-17T04:55:19;98314.69;;;21.49;100.00
13767;BME280;47980;48.794;9.176;2023-08-17T04:57:52;98318.56;;;21.48;100.00
13767;BME280;47980;48.794;9.176;2023-08-17T05:00:24;98318.16;;;21.46;100.00
13767;BME280;47980;48.794;9.176;2023-08-17T05:02:58;98319.28;;;21.59;100.00
13767;BME280;47980;48.794;9.176;2023-08-17T05:05:29;98319.28;;;21.59;100.00
13767;BME280;47980;48.794;9.176;2023-08-17T05:08:01;98322.75;;;21.59;100.00
13767;BME280;47980;48.794;9.176;2023-08-17T05:10:32;98323.91;;;21.62;100.00
13767;BME280;47980;48.794;9.176;2023-08-17T05:13:05;98325.06;;;21.65;100.00
13767;BME280;47980;48.794;9.176;2023-08-17T05:15:37;98324.19;;;21.78;100.00
13767;BME280;47980;48.794;9.176;2023-08-17T05:18:08;98324.84;;;22.00;100.00
13767;BME280;47980;48.794;9.176;2023-08-17T05:20:40;98331.81;;;22.01;100.00
13767;BME280;47980;48.794;9.176;2023-08-17T05:23:11;98336.06;;;22.02;100.00
13767;BME280;47980;48.794;9.176;2023-08-17T05:25:46;98332.19;;;22.03;100.00
13767;BME280;47980;48.794;9.176;2023-08-17T05:28:18;98327.50;;;22.07;100.00
13767;BME280;47980;48.794;9.176;2023-08-17T05:30:50;98331.38;;;22.10;100.00
13767;BME280;47980;48.794;9.176;2023-08-17T05:33:23;98333.25;;;22.24;100.00
13767;BME280;47980;48.794;9.176;2023-08-17T05:35:55;98337.06;;;22.33;100.00
13767;BME280;47980;48.794;9.176;2023-08-17T05:38:26;98331.25;;;22.31;100.00
13767;BME280;47980;48.794;9.176;2023-08-17T05:40:58;98330.09;;;22.29;100.00
13767;BME280;47980;48.794;9.176;2023-08-17T05:43:33;98334.69;;;22.39;100.00
13767;BME280;47980;48.794;9.176;2023-08-17T05:46:04;98331.97;;;22.39;100.00
13767;BME280;47980;48.794;9.176;2023-08-17T05:48:36;98330.38;;;22.49;100.00
13767;BME280;47980;48.794;9.176;2023-08-17T05:51:08;98326.06;;;22.55;100.00
13767;BME280;47980;48.794;9.176;2023-08-17T05:53:39;98323.31;;;22.58;100.00
13767;BME280;47980;48.794;9.176;2023-08-17T05:56:11;98323.78;;;22.50;100.00
13767;BME280;47980;48.794;9.176;2023-08-17T05:58:44;98325.19;;;22.65;100.00
13767;BME280;47980;48.794;9.176;2023-08-17T06:01:16;98325.78;;;22.87;100.00
13767;BME280;47980;48.794;9.176;2023-08-17T06:03:48;98328.13;;;22.85;100.00
13767;BME280;47980;48.794;9.176;2023-08-17T06:06:20;98346.34;;;22.81;100.00
13767;BME280;47980;48.794;9.176;2023-08-17T06:08:51;98338.88;;;22.96;100.00
13767;BME280;47980;48.794;9.176;2023-08-17T06:11:23;98350.50;;;22.89;100.00
13767;BME280;47980;48.794;9.176;2023-08-17T06:14:00;98353.19;;;22.96;100.00
13767;BME280;47980;48.794;9.176;2023-08-17T06:16:32;98347.72;;;23.00;100.00
13767;BME280;47980;48.794;9.176;2023-08-17T06:19:03;98355.84;;;23.00;100.00
13767;BME280;47980;48.794;9.176;2023-08-17T06:21:35;98351.38;;;22.79;100.00
13767;BME280;47980;48.794;9.176;2023-08-17T06:24:06;98363.72;;;22.80;100.00
13767;BME280;47980;48.794;9.176;2023-08-17T06:26:38;98360.16;;;22.90;100.00
13767;BME280;47980;48.794;9.176;2023-08-17T06:29:11;98346.06;;;23.13;100.00
13767;BME280;47980;48.794;9.176;2023-08-17T06:31:42;98347.22;;;23.12;100.00
13767;BME280;47980;48.794;9.176;2023-08-17T06:34:14;98338.59;;;23.24;99.07
13767;BME280;47980;48.794;9.176;2023-08-17T06:36:57;98343.28;;;23.54;96.81
13767;BME280;47980;48.794;9.176;2023-08-17T06:39:29;98346.66;;;22.87;100.00
13767;BME280;47980;48.794;9.176;2023-08-17T06:42:01;98350.50;;;23.30;99.06
13767;BME280;47980;48.794;9.176;2023-08-17T06:44:35;98350.09;;;23.70;96.33
13767;BME280;47980;48.794;9.176;2023-08-17T06:47:06;98345.53;;;23.60;96.53
13767;BME280;47980;48.794;9.176;2023-08-17T06:49:38;98344.22;;;23.41;98.05
13767;BME280;47980;48.794;9.176;2023-08-17T06:52:10;98346.75;;;23.55;96.91
13767;BME280;47980;48.794;9.176;2023-08-17T06:54:41;98349.31;;;23.69;95.94
13767;BME280;47980;48.794;9.176;2023-08-17T06:57:13;98350.38;;;23.41;97.85
13767;BME280;47980;48.794;9.176;2023-08-17T06:59:46;98345.69;;;23.45;97.53
13767;BME280;47980;48.794;9.176;2023-08-17T07:02:20;98347.19;;;23.84;96.36
13767;BME280;47980;48.794;9.176;2023-08-17T07:04:51;98354.69;;;24.31;93.21
13767;BME280;47980;48.794;9.176;2023-08-17T07:07:23;98344.97;;;24.33;92.31
13767;BME280;47980;48.794;9.176;2023-08-17T07:09:54;98344.75;;;24.20;90.28
13767;BME280;47980;48.794;9.176;2023-08-17T07:12:27;98351.03;;;24.68;88.47
13767;BME280;47980;48.794;9.176;2023-08-17T07:15:00;98352.28;;;24.87;86.84
13767;BME280;47980;48.794;9.176;2023-08-17T07:17:31;98350.88;;;25.02;84.61
13767;BME280;47980;48.794;9.176;2023-08-17T07:20:05;98355.94;;;25.00;87.00
13767;BME280;47980;48.794;9.176;2023-08-17T07:22:37;98363.38;;;24.72;86.81
13767;BME280;47980;48.794;9.176;2023-08-17T07:25:09;98354.19;;;24.66;87.34
13767;BME280;47980;48.794;9.176;2023-08-17T07:27:41;98361.66;;;24.59;87.40
13767;BME280;47980;48.794;9.176;2023-08-17T07:30:14;98361.19;;;24.40;89.01
13767;BME280;47980;48.794;9.176;2023-08-17T07:32:45;98352.50;;;24.49;88.15
13767;BME280;47980;48.794;9.176;2023-08-17T07:35:17;98351.56;;;24.32;87.68
13767;BME280;47980;48.794;9.176;2023-08-17T07:37:52;98357.63;;;24.43;87.79
13767;BME280;47980;48.794;9.176;2023-08-17T07:40:23;98351.38;;;24.93;86.30
13767;BME280;47980;48.794;9.176;2023-08-17T07:42:55;98358.84;;;25.73;81.80
13767;BME280;47980;48.794;9.176;2023-08-17T07:45:28;98357.03;;;25.66;81.97
13767;BME280;47980;48.794;9.176;2023-08-17T07:47:59;98353.22;;;26.20;77.79
13767;BME280;47980;48.794;9.176;2023-08-17T07:50:31;98363.88;;;25.94;76.06
13767;BME280;47980;48.794;9.176;2023-08-17T07:53:05;98353.41;;;25.73;79.81
13767;BME280;47980;48.794;9.176;2023-08-17T07:55:37;98350.94;;;25.82;79.03
13767;BME280;47980;48.794;9.176;2023-08-17T07:58:08;98341.66;;;25.79;79.20
13767;BME280;47980;48.794;9.176;2023-08-17T08:00:41;98344.84;;;25.94;79.11
13767;BME280;47980;48.794;9.176;2023-08-17T08:03:14;98340.72;;;26.22;77.84
13767;BME280;47980;48.794;9.176;2023-08-17T08:05:46;98337.97;;;26.06;77.41
13767;BME280;47980;48.794;9.176;2023-08-17T08:08:17;98340.03;;;26.34;74.89
13767;BME280;47980;48.794;9.176;2023-08-17T08:10:53;98340.41;;;26.36;74.49
13767;BME280;47980;48.794;9.176;2023-08-17T08:13:24;98334.78;;;26.27;75.58
13767;BME280;47980;48.794;9.176;2023-08-17T08:15:58;98334.63;;;26.67;74.05
13767;BME280;47980;48.794;9.176;2023-08-17T08:18:29;98340.56;;;26.95;72.66
13767;BME280;47980;48.794;9.176;2023-08-17T08:21:01;98329.75;;;26.91;73.90
13767;BME280;47980;48.794;9.176;2023-08-17T08:23:32;98338.28;;;26.60;74.31
13767;BME280;47980;48.794;9.176;2023-08-17T08:26:04;98333.31;;;26.39;74.47
13767;BME280;47980;48.794;9.176;2023-08-17T08:28:36;98334.69;;;26.14;78.50
13767;BME280;47980;48.794;9.176;2023-08-17T08:31:08;98326.28;;;26.41;74.90
13767;BME280;47980;48.794;9.176;2023-08-17T08:33:40;98331.38;;;26.39;76.60
13767;BME280;47980;48.794;9.176;2023-08-17T08:36:14;98333.41;;;26.19;76.45
13767;BME280;47980;48.794;9.176;2023-08-17T08:38:45;98333.41;;;26.19;74.57
13767;BME280;47980;48.794;9.176;2023-08-17T08:41:17;98337.16;;;26.58;74.31
13767;BME280;47980;48.794;9.176;2023-08-17T08:43:48;98332.28;;;26.16;76.83
13767;BME280;47980;48.794;9.176;2023-08-17T08:46:24;98332.09;;;27.05;72.70
13767;BME280;47980;48.794;9.176;2023-08-17T08:48:57;98342.63;;;27.20;72.39
13767;BME280;47980;48.794;9.176;2023-08-17T08:51:31;98331.59;;;27.40;69.31
13767;BME280;47980;48.794;9.176;2023-08-17T08:54:07;98337.47;;;26.93;72.00
13767;BME280;47980;48.794;9.176;2023-08-17T08:56:43;98333.88;;;27.12;72.39
13767;BME280;47980;48.794;9.176;2023-08-17T08:59:19;98327.72;;;27.24;71.96
13767;BME280;47980;48.794;9.176;2023-08-17T09:01:53;98332.97;;;27.31;70.65
13767;BME280;47980;48.794;9.176;2023-08-17T09:04:25;98324.66;;;26.60;74.19
13767;BME280;47980;48.794;9.176;2023-08-17T09:06:59;98328.91;;;27.23;69.70
13767;BME280;47980;48.794;9.176;2023-08-17T09:09:33;98333.25;;;27.63;69.09
13767;BME280;47980;48.794;9.176;2023-08-17T09:12:07;98324.81;;;27.99;68.49
13767;BME280;47980;48.794;9.176;2023-08-17T09:14:38;98328.97;;;27.36;67.90
13767;BME280;47980;48.794;9.176;2023-08-17T09:17:12;98320.13;;;27.32;69.09
13767;BME280;47980;48.794;9.176;2023-08-17T09:19:47;98325.84;;;27.63;66.85
13767;BME280;47980;48.794;9.176;2023-08-17T09:22:36;98322.22;;;27.82;69.35
13767;BME280;47980;48.794;9.176;2023-08-17T09:25:09;98321.03;;;27.96;68.74
13767;BME280;47980;48.794;9.176;2023-08-17T09:27:43;98322.09;;;28.37;66.67
13767;BME280;47980;48.794;9.176;2023-08-17T09:30:15;98321.41;;;28.59;63.98
13767;BME280;47980;48.794;9.176;2023-08-17T09:32:48;98315.13;;;28.84;64.04
13767;BME280;47980;48.794;9.176;2023-08-17T09:35:20;98318.03;;;29.02;63.35
13767;BME280;47980;48.794;9.176;2023-08-17T09:37:52;98316.38;;;28.70;64.02
13767;BME280;47980;48.794;9.176;2023-08-17T09:40:26;98312.44;;;29.27;63.40
13767;BME280;47980;48.794;9.176;2023-08-17T09:42:58;98311.91;;;28.98;64.72
13767;BME280;47980;48.794;9.176;2023-08-17T09:45:30;98319.19;;;29.36;62.35
13767;BME280;47980;48.794;9.176;2023-08-17T09:48:04;98316.84;;;29.25;63.04
13767;BME280;47980;48.794;9.176;2023-08-17T09:50:36;98322.34;;;29.12;62.86
13767;BME280;47980;48.794;9.176;2023-08-17T09:53:12;98317.47;;;29.07;63.54
13767;BME280;47980;48.794;9.176;2023-08-17T09:55:44;98315.81;;;29.10;63.80
13767;BME280;47980;48.794;9.176;2023-08-17T09:58:16;98314.63;;;28.98;65.30
13767;BME280;47980;48.794;9.176;2023-08-17T10:00:49;98318.91;;;28.99;64.02
13767;BME280;47980;48.794;9.176;2023-08-17T10:03:23;98307.53;;;28.66;66.17
13767;BME280;47980;48.794;9.176;2023-08-17T10:06:06;98316.19;;;29.21;64.55
13767;BME280;47980;48.794;9.176;2023-08-17T10:08:43;98304.19;;;28.36;66.01
13767;BME280;47980;48.794;9.176;2023-08-17T10:11:19;98305.94;;;28.17;66.69
13767;BME280;47980;48.794;9.176;2023-08-17T10:13:52;98307.59;;;28.02;66.65
13767;BME280;47980;48.794;9.176;2023-08-17T10:16:31;98306.38;;;28.16;66.54
13767;BME280;47980;48.794;9.176;2023-08-17T10:19:11;98301.38;;;27.76;67.54
13767;BME280;47980;48.794;9.176;2023-08-17T10:21:48;98301.41;;;27.47;70.68
13767;BME280;47980;48.794;9.176;2023-08-17T10:24:23;98302.97;;;28.24;67.30
13767;BME280;47980;48.794;9.176;2023-08-17T10:26:55;98297.03;;;28.64;64.34
13767;BME280;47980;48.794;9.176;2023-08-17T10:29:30;98298.78;;;28.93;63.87
13767;BME280;47980;48.794;9.176;2023-08-17T10:32:05;98297.59;;;28.94;64.89
13767;BME280;47980;48.794;9.176;2023-08-17T10:34:39;98297.06;;;29.21;63.59
13767;BME280;47980;48.794;9.176;2023-08-17T10:37:15;98298.53;;;29.13;64.46
13767;BME280;47980;48.794;9.176;2023-08-17T10:39:49;98291.22;;;28.75;64.34
13767;BME280;47980;48.794;9.176;2023-08-17T10:42:30;98293.84;;;29.44;61.20
13767;BME280;47980;48.794;9.176;2023-08-17T10:45:26;98291.94;;;29.54;63.14
13767;BME280;47980;48.794;9.176;2023-08-17T10:48:26;98281.44;;;29.74;61.96
13767;BME280;47980;48.794;9.176;2023-08-17T10:51:02;98290.28;;;29.88;59.27
13767;BME280;47980;48.794;9.176;2023-08-17T10:53:35;98285.63;;;29.97;59.01
13767;BME280;47980;48.794;9.176;2023-08-17T10:56:11;98289.72;;;29.93;59.61
13767;BME280;47980;48.794;9.176;2023-08-17T10:58:44;98289.44;;;28.81;61.88
13767;BME280;47980;48.794;9.176;2023-08-17T11:01:31;98282.09;;;28.91;64.06
13767;BME280;47980;48.794;9.176;2023-08-17T11:04:13;98286.59;;;29.50;60.21
13767;BME280;47980;48.794;9.176;2023-08-17T11:07:02;98275.00;;;30.00;58.51
13767;BME280;47980;48.794;9.176;2023-08-17T11:09:38;98277.34;;;30.19;58.17
13767;BME280;47980;48.794;9.176;2023-08-17T11:12:24;98275.75;;;30.00;59.60
13767;BME280;47980;48.794;9.176;2023-08-17T11:14:57;98272.38;;;30.36;59.71
13767;BME280;47980;48.794;9.176;2023-08-17T11:17:29;98273.97;;;30.15;58.29
13767;BME280;47980;48.794;9.176;2023-08-17T11:20:00;98272.97;;;29.91;58.91
13767;BME280;47980;48.794;9.176;2023-08-17T11:22:33;98270.00;;;29.45;59.30
13767;BME280;47980;48.794;9.176;2023-08-17T11:25:06;98263.88;;;28.88;61.50
13767;BME280;47980;48.794;9.176;2023-08-17T11:27:38;98256.16;;;29.39;59.36
13767;BME280;47980;48.794;9.176;2023-08-17T11:30:11;98265.78;;;29.22;58.92
13767;BME280;47980;48.794;9.176;2023-08-17T11:32:43;98257.53;;;29.35;60.22
13767;BME280;47980;48.794;9.176;2023-08-17T11:35:17;98253.28;;;29.65;60.06
13767;BME280;47980;48.794;9.176;2023-08-17T11:38:05;98247.97;;;30.11;58.20
13767;BME280;47980;48.794;9.176;2023-08-17T11:40:40;98251.50;;;30.20;56.15
13767;BME280;47980;48.794;9.176;2023-08-17T11:43:15;98247.34;;;29.66;57.42
13767;BME280;47980;48.794;9.176;2023-08-17T11:45:47;98257.47;;;30.37;57.08
13767;BME280;47980;48.794;9.176;2023-08-17T11:48:21;98260.03;;;30.23;57.84
13767;BME280;47980;48.794;9.176;2023-08-17T11:50:54;98263.72;;;29.97;58.18
13767;BME280;47980;48.794;9.176;2023-08-17T11:53:34;98270.28;;;30.00;58.01
13767;BME280;47980;48.794;9.176;2023-08-17T11:56:31;98267.66;;;29.87;56.06
13767;BME280;47980;48.794;9.176;2023-08-17T11:59:15;98263.81;;;29.85;55.90
13767;BME280;47980;48.794;9.176;2023-08-17T12:01:53;98266.44;;;29.88;58.09
13767;BME280;47980;48.794;9.176;2023-08-17T12:04:45;98262.66;;;29.95;56.08
13767;BME280;47980;48.794;9.176;2023-08-17T12:07:21;98257.97;;;30.05;58.46
13767;BME280;47980;48.794;9.176;2023-08-17T12:09:56;98269.09;;;29.70;59.95
13767;BME280;47980;48.794;9.176;2023-08-17T12:12:28;98274.84;;;29.63;61.69
13767;BME280;47980;48.794;9.176;2023-08-17T12:15:00;98282.56;;;29.95;60.81
13767;BME280;47980;48.794;9.176;2023-08-17T12:17:44;98285.16;;;29.99;61.12
13767;BME280;47980;48.794;9.176;2023-08-17T12:20:17;98297.59;;;30.31;62.25
13767;BME280;47980;48.794;9.176;2023-08-17T12:22:49;98291.72;;;30.60;61.29
13767;BME280;47980;48.794;9.176;2023-08-17T12:25:23;98282.47;;;30.76;59.54
13767;BME280;47980;48.794;9.176;2023-08-17T12:27:58;98275.00;;;30.00;63.08
13767;BME280;47980;48.794;9.176;2023-08-17T12:30:32;98277.34;;;30.19;63.34
13767;BME280;47980;48.794;9.176;2023-08-17T12:36:29;98281.13;;;29.50;65.29
13767;BME280;47980;48.794;9.176;2023-08-17T12:40:14;98282.00;;;29.38;65.19
13767;BME280;47980;48.794;9.176;2023-08-17T12:46:07;98289.31;;;29.41;66.00
13767;BME280;47980;48.794;9.176;2023-08-17T12:48:52;98303.75;;;29.20;67.37
13767;BME280;47980;48.794;9.176;2023-08-17T12:51:56;98308.69;;;29.12;68.27
13767;BME280;47980;48.794;9.176;2023-08-17T13:01:27;98324.63;;;28.79;69.00
13767;BME280;47980;48.794;9.176;2023-08-17T13:04:19;98302.50;;;28.64;70.51
13767;BME280;47980;48.794;9.176;2023-08-17T13:06:57;98301.38;;;28.74;69.12
13767;BME280;47980;48.794;9.176;2023-08-17T13:13:09;98305.63;;;27.90;76.47
13767;BME280;47980;48.794;9.176;2023-08-17T13:16:04;98335.84;;;27.95;78.59
13767;BME280;47980;48.794;9.176;2023-08-17T13:19:09;98335.38;;;27.29;81.94
13767;BME280;47980;48.794;9.176;2023-08-17T13:22:53;98333.28;;;27.04;83.11
13767;BME280;47980;48.794;9.176;2023-08-17T13:25:37;98328.34;;;26.70;87.73
13767;BME280;47980;48.794;9.176;2023-08-17T13:28:09;98320.25;;;26.50;87.63
13767;BME280;47980;48.794;9.176;2023-08-17T13:30:40;98317.13;;;26.52;88.36
13767;BME280;47980;48.794;9.176;2023-08-17T13:33:12;98319.50;;;26.66;90.15
13767;BME280;47980;48.794;9.176;2023-08-17T13:35:45;98303.66;;;26.61;88.68
13767;BME280;47980;48.794;9.176;2023-08-17T13:38:17;98293.41;;;26.00;93.29
13767;BME280;47980;48.794;9.176;2023-08-17T13:40:48;98291.66;;;26.09;93.32
13767;BME280;47980;48.794;9.176;2023-08-17T13:43:20;98283.59;;;26.06;93.22
13767;BME280;47980;48.794;9.176;2023-08-17T13:45:51;98277.19;;;25.60;97.13
13767;BME280;47980;48.794;9.176;2023-08-17T13:48:23;98277.91;;;25.64;97.32
13767;BME280;47980;48.794;9.176;2023-08-17T13:50:56;98284.31;;;25.54;97.27